Terminal Aerodrome Forecast
Issued by NWS Tallahassee, FL

Home | Current Version | Previous Version | Text Only | Print | Product List | Glossary On
Versions: 1 2 3 4 5 6 7 8 9 10 11 12 13 14 15 16 17
000
FTUS42 KTAE 240500
TAFTLH
TAF
KTLH 240520Z 2406/2506 00000KT P6SM SKC
      TEMPO 2410/2413 3SM BR FEW004
     FM241500 23010KT P6SM VCTS SCT030CB BKN100
     FM242200 21005KT P6SM BKN250=

USA.gov is the U.S. government's official web portal to all federal, state and local government web resources and services.